VLG6WL LICJ-LEBL
Flight info
| Callsign | VLG6WL |
|---|---|
| Flight time | 1h 37m |
| Altitude | 38000 |
| Route | GIANO DCT ORVEX DCT EPIKU DCT GINOX DCT KIFMI DCT ELVOP DCT MUREN M601 VERSO |
| Aircraft | A320/M-SDE3FGHIRWY/LB1 |
Departure
| Time | 2026-05-05 09:21 |
|---|---|
| Airport | Falcone–Borsellino Airport (LICJ) |
Arrival
| Time | 2026-05-05 10:59 |
|---|---|
| Airport | Josep Tarradellas Barcelona-El Prat Airport (LEBL) |
| Time | Latitude | Longitude | Altitude | Speed | Heading |
|---|---|---|---|---|---|
| 2026-05-05 09:02 | 38.18518 | 13.10486 | 65 ft | 0 kts | 336° |
| 2026-05-05 09:13 | 38.18508 | 13.10491 | 65 ft | 4 kts | 338° |
| 2026-05-05 09:13 | 38.18482 | 13.10503 | 57 ft | 4 kts | 344° |
| 2026-05-05 09:13 | 38.18456 | 13.10510 | 65 ft | 4 kts | 359° |
| 2026-05-05 09:14 | 38.18433 | 13.10505 | 59 ft | 4 kts | 45° |
| 2026-05-05 09:14 | 38.18428 | 13.10498 | 65 ft | 0 kts | 61° |
| 2026-05-05 09:17 | 38.18429 | 13.10501 | 65 ft | 3 kts | 61° |
| 2026-05-05 09:17 | 38.18456 | 13.10563 | 63 ft | 13 kts | 61° |
| 2026-05-05 09:17 | 38.18498 | 13.10694 | 65 ft | 16 kts | 70° |
| 2026-05-05 09:18 | 38.18483 | 13.10827 | 65 ft | 15 kts | 107° |
| 2026-05-05 09:18 | 38.18438 | 13.10944 | 62 ft | 15 kts | 127° |
| 2026-05-05 09:18 | 38.18448 | 13.11062 | 58 ft | 13 kts | 67° |
| 2026-05-05 09:18 | 38.18485 | 13.11173 | 65 ft | 13 kts | 67° |
| 2026-05-05 09:19 | 38.18525 | 13.11292 | 58 ft | 19 kts | 66° |
| 2026-05-05 09:19 | 38.18588 | 13.11474 | 59 ft | 24 kts | 68° |
| 2026-05-05 09:19 | 38.18612 | 13.11657 | 66 ft | 15 kts | 97° |
| 2026-05-05 09:19 | 38.18599 | 13.11783 | 68 ft | 13 kts | 97° |
| 2026-05-05 09:20 | 38.18576 | 13.11872 | 71 ft | 9 kts | 132° |
| 2026-05-05 09:20 | 38.18503 | 13.11845 | 72 ft | 20 kts | 243° |
| 2026-05-05 09:20 | 38.18364 | 13.11440 | 68 ft | 85 kts | 247° |
| 2026-05-05 09:20 | 38.18055 | 13.10511 | 63 ft | 141 kts | 247° |
| 2026-05-05 09:21 | 38.17620 | 13.09204 | 284 ft | 168 kts | 246° |
| 2026-05-05 09:21 | 38.17168 | 13.07850 | 1039 ft | 166 kts | 245° |
| 2026-05-05 09:21 | 38.16715 | 13.06506 | 1782 ft | 165 kts | 245° |
| 2026-05-05 09:21 | 38.16248 | 13.05112 | 2203 ft | 181 kts | 245° |
| 2026-05-05 09:22 | 38.15737 | 13.03552 | 2510 ft | 203 kts | 250° |
| 2026-05-05 09:22 | 38.15464 | 13.01685 | 2847 ft | 228 kts | 267° |
| 2026-05-05 09:22 | 38.15651 | 12.99583 | 3257 ft | 253 kts | 286° |
| 2026-05-05 09:22 | 38.16441 | 12.97512 | 3900 ft | 267 kts | 306° |
| 2026-05-05 09:23 | 38.17771 | 12.95857 | 4791 ft | 271 kts | 325° |
| 2026-05-05 09:23 | 38.19382 | 12.94587 | 5686 ft | 274 kts | 324° |
| 2026-05-05 09:23 | 38.20839 | 12.93024 | 6605 ft | 274 kts | 312° |
| 2026-05-05 09:23 | 38.22016 | 12.91109 | 7506 ft | 276 kts | 302° |
| 2026-05-05 09:24 | 38.23076 | 12.89053 | 8399 ft | 280 kts | 302° |
| 2026-05-05 09:24 | 38.24140 | 12.86962 | 9278 ft | 285 kts | 302° |
| 2026-05-05 09:24 | 38.25214 | 12.84851 | 10130 ft | 284 kts | 301° |
| 2026-05-05 09:24 | 38.26317 | 12.82681 | 10606 ft | 304 kts | 301° |
| 2026-05-05 09:25 | 38.27500 | 12.80361 | 10927 ft | 319 kts | 301° |
| 2026-05-05 09:25 | 38.28747 | 12.77973 | 11551 ft | 328 kts | 306° |
| 2026-05-05 09:25 | 38.30463 | 12.76036 | 12278 ft | 337 kts | 328° |
| 2026-05-05 09:25 | 38.32714 | 12.75105 | 13018 ft | 345 kts | 346° |
| 2026-05-05 09:26 | 38.35047 | 12.74385 | 13744 ft | 346 kts | 338° |
| 2026-05-05 09:26 | 38.37294 | 12.73261 | 14434 ft | 348 kts | 334° |
| 2026-05-05 09:26 | 38.39533 | 12.72060 | 15109 ft | 350 kts | 333° |
| 2026-05-05 09:26 | 38.41774 | 12.70813 | 15767 ft | 353 kts | 333° |
| 2026-05-05 09:27 | 38.44029 | 12.69528 | 16401 ft | 356 kts | 332° |
| 2026-05-05 09:27 | 38.46298 | 12.68220 | 17017 ft | 360 kts | 332° |
| 2026-05-05 09:27 | 38.48586 | 12.66898 | 17627 ft | 363 kts | 332° |
| 2026-05-05 09:27 | 38.50892 | 12.65565 | 18231 ft | 365 kts | 332° |
| 2026-05-05 09:28 | 38.53219 | 12.64218 | 18796 ft | 369 kts | 332° |
| 2026-05-05 09:28 | 38.55569 | 12.62861 | 19355 ft | 372 kts | 332° |
| 2026-05-05 09:28 | 38.57943 | 12.61494 | 19904 ft | 376 kts | 332° |
| 2026-05-05 09:28 | 38.60341 | 12.60115 | 20429 ft | 380 kts | 332° |
| 2026-05-05 09:29 | 38.62761 | 12.58720 | 20959 ft | 384 kts | 332° |
| 2026-05-05 09:29 | 38.65208 | 12.57307 | 21472 ft | 387 kts | 332° |
| 2026-05-05 09:29 | 38.67674 | 12.55881 | 21981 ft | 391 kts | 332° |
| 2026-05-05 09:29 | 38.70163 | 12.54444 | 22471 ft | 394 kts | 332° |
| 2026-05-05 09:30 | 38.72678 | 12.52995 | 22969 ft | 398 kts | 332° |
| 2026-05-05 09:30 | 38.75211 | 12.51535 | 23427 ft | 401 kts | 332° |
| 2026-05-05 09:30 | 38.77762 | 12.50057 | 23878 ft | 404 kts | 332° |
| 2026-05-05 09:30 | 38.80332 | 12.48564 | 24322 ft | 407 kts | 332° |
| 2026-05-05 09:31 | 38.82921 | 12.47057 | 24769 ft | 409 kts | 331° |
| 2026-05-05 09:31 | 38.85383 | 12.45254 | 25193 ft | 407 kts | 321° |
| 2026-05-05 09:31 | 38.87550 | 12.42945 | 25614 ft | 404 kts | 311° |
| 2026-05-05 09:31 | 38.89334 | 12.40244 | 26029 ft | 401 kts | 302° |
| 2026-05-05 09:32 | 38.90925 | 12.37241 | 26420 ft | 403 kts | 301° |
| 2026-05-05 09:32 | 38.92505 | 12.34262 | 26819 ft | 404 kts | 301° |
| 2026-05-05 09:32 | 38.94072 | 12.31315 | 27193 ft | 405 kts | 301° |
| 2026-05-05 09:32 | 38.95668 | 12.28315 | 27562 ft | 407 kts | 301° |
| 2026-05-05 09:33 | 38.97267 | 12.25304 | 27927 ft | 409 kts | 301° |
| 2026-05-05 09:33 | 38.98872 | 12.22282 | 28287 ft | 410 kts | 301° |
| 2026-05-05 09:33 | 39.00481 | 12.19251 | 28617 ft | 410 kts | 301° |
| 2026-05-05 09:33 | 39.02094 | 12.16202 | 28965 ft | 413 kts | 301° |
| 2026-05-05 09:34 | 39.03711 | 12.13140 | 29299 ft | 414 kts | 301° |
| 2026-05-05 09:34 | 39.05334 | 12.10066 | 29604 ft | 416 kts | 301° |
| 2026-05-05 09:34 | 39.06961 | 12.06986 | 29910 ft | 417 kts | 301° |
| 2026-05-05 09:34 | 39.08593 | 12.03899 | 30210 ft | 418 kts | 301° |
| 2026-05-05 09:35 | 39.10231 | 12.00799 | 30490 ft | 419 kts | 301° |
| 2026-05-05 09:35 | 39.13509 | 11.94577 | 31043 ft | 421 kts | 301° |
| 2026-05-05 09:35 | 39.15149 | 11.91458 | 31309 ft | 421 kts | 301° |
| 2026-05-05 09:36 | 39.16788 | 11.88334 | 31608 ft | 420 kts | 301° |
| 2026-05-05 09:36 | 39.18421 | 11.85217 | 31967 ft | 418 kts | 301° |
| 2026-05-05 09:36 | 39.20043 | 11.82115 | 32310 ft | 416 kts | 301° |
| 2026-05-05 09:36 | 39.21658 | 11.79027 | 32655 ft | 414 kts | 301° |
| 2026-05-05 09:37 | 39.23266 | 11.75954 | 33008 ft | 412 kts | 301° |
| 2026-05-05 09:37 | 39.24867 | 11.72897 | 33350 ft | 410 kts | 301° |
| 2026-05-05 09:37 | 39.26455 | 11.69852 | 33691 ft | 408 kts | 301° |
| 2026-05-05 09:37 | 39.28036 | 11.66814 | 34006 ft | 407 kts | 301° |
| 2026-05-05 09:38 | 39.29610 | 11.63789 | 34341 ft | 405 kts | 301° |
| 2026-05-05 09:38 | 39.31180 | 11.60777 | 34635 ft | 404 kts | 301° |
| 2026-05-05 09:38 | 39.32751 | 11.57763 | 34890 ft | 404 kts | 301° |
| 2026-05-05 09:38 | 39.34315 | 11.54749 | 35126 ft | 404 kts | 301° |
| 2026-05-05 09:39 | 39.35350 | 11.52752 | 35280 ft | 404 kts | 301° |
| 2026-05-05 09:39 | 39.37439 | 11.48712 | 35549 ft | 404 kts | 301° |
| 2026-05-05 09:39 | 39.38475 | 11.46707 | 35679 ft | 405 kts | 301° |
| 2026-05-05 09:39 | 39.40036 | 11.43682 | 35885 ft | 405 kts | 301° |
| 2026-05-05 09:40 | 39.41602 | 11.40648 | 36048 ft | 405 kts | 301° |
| 2026-05-05 09:40 | 39.43166 | 11.37629 | 36079 ft | 402 kts | 301° |
| 2026-05-05 09:40 | 39.46269 | 11.31624 | 36071 ft | 401 kts | 301° |
| 2026-05-05 09:41 | 39.49367 | 11.25615 | 36073 ft | 401 kts | 301° |
| 2026-05-05 09:41 | 39.52456 | 11.19607 | 36073 ft | 401 kts | 300° |
| 2026-05-05 09:42 | 39.55537 | 11.13587 | 36073 ft | 401 kts | 300° |
| 2026-05-05 09:42 | 39.58618 | 11.07562 | 36074 ft | 401 kts | 300° |
| 2026-05-05 09:43 | 39.61704 | 11.01530 | 36076 ft | 401 kts | 300° |
| 2026-05-05 09:43 | 39.64784 | 10.95502 | 36074 ft | 401 kts | 300° |
| 2026-05-05 09:44 | 39.67841 | 10.89497 | 36068 ft | 401 kts | 300° |
| 2026-05-05 09:44 | 39.70935 | 10.83399 | 36067 ft | 402 kts | 300° |
| 2026-05-05 09:45 | 39.73986 | 10.77382 | 36067 ft | 402 kts | 300° |
| 2026-05-05 09:45 | 39.77064 | 10.71304 | 36064 ft | 402 kts | 300° |
| 2026-05-05 09:46 | 39.80139 | 10.65217 | 36062 ft | 403 kts | 300° |
| 2026-05-05 09:46 | 39.83217 | 10.59122 | 36062 ft | 403 kts | 300° |
| 2026-05-05 09:47 | 39.86280 | 10.53031 | 36057 ft | 403 kts | 300° |
| 2026-05-05 09:47 | 39.89341 | 10.46924 | 36055 ft | 403 kts | 300° |
| 2026-05-05 09:48 | 39.92405 | 10.40817 | 36053 ft | 403 kts | 299° |
| 2026-05-05 09:48 | 39.95463 | 10.34701 | 36046 ft | 402 kts | 299° |
| 2026-05-05 09:49 | 39.98519 | 10.28590 | 36046 ft | 402 kts | 299° |
| 2026-05-05 09:49 | 40.01567 | 10.22465 | 36036 ft | 402 kts | 299° |
| 2026-05-05 09:50 | 40.04623 | 10.16337 | 36036 ft | 403 kts | 299° |
| 2026-05-05 09:50 | 40.07662 | 10.10192 | 36036 ft | 403 kts | 299° |
| 2026-05-05 09:51 | 40.10703 | 10.04049 | 36036 ft | 402 kts | 299° |
| 2026-05-05 09:51 | 40.13747 | 9.97909 | 36037 ft | 402 kts | 299° |
| 2026-05-05 09:52 | 40.16783 | 9.91757 | 36035 ft | 402 kts | 299° |
| 2026-05-05 09:52 | 40.19794 | 9.85635 | 36032 ft | 402 kts | 299° |
| 2026-05-05 09:53 | 40.22828 | 9.79463 | 36031 ft | 403 kts | 299° |
| 2026-05-05 09:53 | 40.25863 | 9.73285 | 36030 ft | 403 kts | 299° |
| 2026-05-05 09:54 | 40.28896 | 9.67110 | 36030 ft | 403 kts | 298° |
| 2026-05-05 09:54 | 40.31919 | 9.60918 | 36033 ft | 403 kts | 298° |
| 2026-05-05 09:55 | 40.34932 | 9.54722 | 36029 ft | 402 kts | 298° |
| 2026-05-05 09:55 | 40.37940 | 9.48534 | 36029 ft | 402 kts | 298° |
| 2026-05-05 09:56 | 40.40954 | 9.42342 | 36023 ft | 403 kts | 298° |
| 2026-05-05 09:56 | 40.43959 | 9.36148 | 36021 ft | 403 kts | 298° |
| 2026-05-05 09:57 | 40.46966 | 9.29937 | 36022 ft | 403 kts | 298° |
| 2026-05-05 09:57 | 40.49965 | 9.23725 | 36022 ft | 403 kts | 298° |
| 2026-05-05 09:58 | 40.52944 | 9.17534 | 36021 ft | 403 kts | 298° |
| 2026-05-05 09:58 | 40.55942 | 9.11301 | 36023 ft | 403 kts | 298° |
| 2026-05-05 09:59 | 40.58940 | 9.05059 | 36025 ft | 403 kts | 298° |
| 2026-05-05 09:59 | 40.61934 | 8.98817 | 36025 ft | 403 kts | 297° |
| 2026-05-05 10:00 | 40.64924 | 8.92566 | 36022 ft | 403 kts | 297° |
| 2026-05-05 10:00 | 40.67734 | 8.86206 | 36017 ft | 399 kts | 289° |
| 2026-05-05 10:01 | 40.69483 | 8.79310 | 36017 ft | 396 kts | 284° |
| 2026-05-05 10:01 | 40.71152 | 8.72386 | 36021 ft | 396 kts | 284° |
| 2026-05-05 10:02 | 40.72823 | 8.65462 | 36017 ft | 396 kts | 284° |
| 2026-05-05 10:02 | 40.74479 | 8.58537 | 36009 ft | 396 kts | 284° |
| 2026-05-05 10:03 | 40.76112 | 8.51648 | 36007 ft | 396 kts | 284° |
| 2026-05-05 10:03 | 40.77754 | 8.44721 | 36003 ft | 396 kts | 284° |
| 2026-05-05 10:04 | 40.79403 | 8.37788 | 36003 ft | 396 kts | 284° |
| 2026-05-05 10:04 | 40.81054 | 8.30858 | 36001 ft | 396 kts | 284° |
| 2026-05-05 10:05 | 40.82698 | 8.23915 | 35998 ft | 396 kts | 283° |
| 2026-05-05 10:05 | 40.84325 | 8.16966 | 36000 ft | 396 kts | 283° |
| 2026-05-05 10:06 | 40.85734 | 8.09973 | 35994 ft | 391 kts | 274° |
| 2026-05-05 10:06 | 40.86106 | 8.02831 | 35988 ft | 390 kts | 271° |
| 2026-05-05 10:07 | 40.86465 | 7.95675 | 35989 ft | 391 kts | 272° |
| 2026-05-05 10:07 | 40.86982 | 7.88517 | 35992 ft | 391 kts | 273° |
| 2026-05-05 10:08 | 40.87520 | 7.81368 | 35994 ft | 391 kts | 272° |
| 2026-05-05 10:08 | 40.88019 | 7.74205 | 35996 ft | 391 kts | 272° |
| 2026-05-05 10:09 | 40.88494 | 7.67058 | 35995 ft | 391 kts | 272° |
| 2026-05-05 10:09 | 40.88974 | 7.59898 | 35999 ft | 391 kts | 272° |
| 2026-05-05 10:10 | 40.89448 | 7.52741 | 36000 ft | 391 kts | 272° |
| 2026-05-05 10:10 | 40.89915 | 7.45573 | 36008 ft | 391 kts | 272° |
| 2026-05-05 10:11 | 40.90373 | 7.38410 | 36009 ft | 391 kts | 272° |
| 2026-05-05 10:11 | 40.90837 | 7.31245 | 36018 ft | 391 kts | 272° |
| 2026-05-05 10:12 | 40.91297 | 7.24073 | 36022 ft | 391 kts | 272° |
| 2026-05-05 10:12 | 40.91751 | 7.16917 | 36026 ft | 391 kts | 272° |
| 2026-05-05 10:13 | 40.92201 | 7.09797 | 36027 ft | 390 kts | 271° |
| 2026-05-05 10:13 | 40.92637 | 7.02640 | 36023 ft | 390 kts | 271° |
| 2026-05-05 10:14 | 40.93071 | 6.95481 | 36025 ft | 390 kts | 271° |
| 2026-05-05 10:14 | 40.93503 | 6.88328 | 36028 ft | 390 kts | 271° |
| 2026-05-05 10:15 | 40.93934 | 6.81188 | 36026 ft | 389 kts | 271° |
| 2026-05-05 10:15 | 40.94354 | 6.74046 | 36025 ft | 389 kts | 271° |
| 2026-05-05 10:16 | 40.94775 | 6.66914 | 36022 ft | 389 kts | 271° |
| 2026-05-05 10:16 | 40.95195 | 6.59787 | 36020 ft | 388 kts | 271° |
| 2026-05-05 10:17 | 40.95602 | 6.52659 | 36017 ft | 388 kts | 271° |
| 2026-05-05 10:17 | 40.96003 | 6.45539 | 36014 ft | 388 kts | 271° |
| 2026-05-05 10:18 | 40.96403 | 6.38432 | 36012 ft | 387 kts | 271° |
| 2026-05-05 10:18 | 40.96797 | 6.31324 | 36011 ft | 387 kts | 271° |
| 2026-05-05 10:19 | 40.97188 | 6.24210 | 36005 ft | 388 kts | 271° |
| 2026-05-05 10:19 | 40.97576 | 6.17092 | 35998 ft | 388 kts | 270° |
| 2026-05-05 10:20 | 40.97950 | 6.09970 | 35998 ft | 388 kts | 270° |
| 2026-05-05 10:20 | 40.98321 | 6.02849 | 35996 ft | 388 kts | 270° |
| 2026-05-05 10:21 | 40.98699 | 5.95726 | 35995 ft | 388 kts | 270° |
| 2026-05-05 10:21 | 40.99011 | 5.89811 | 35999 ft | 387 kts | 270° |
| 2026-05-05 10:22 | 40.99378 | 5.82701 | 35997 ft | 387 kts | 270° |
| 2026-05-05 10:22 | 40.99791 | 5.74437 | 35998 ft | 387 kts | 270° |
| 2026-05-05 10:23 | 41.00087 | 5.68486 | 35998 ft | 386 kts | 270° |
| 2026-05-05 10:23 | 41.00438 | 5.61390 | 35993 ft | 386 kts | 270° |
| 2026-05-05 10:24 | 41.00786 | 5.54286 | 35990 ft | 387 kts | 270° |
| 2026-05-05 10:24 | 41.01127 | 5.47173 | 35993 ft | 387 kts | 270° |
| 2026-05-05 10:25 | 41.01467 | 5.40068 | 35999 ft | 386 kts | 270° |
| 2026-05-05 10:25 | 41.01821 | 5.32970 | 36001 ft | 386 kts | 270° |
| 2026-05-05 10:26 | 41.02192 | 5.25868 | 35995 ft | 386 kts | 270° |
| 2026-05-05 10:26 | 41.02569 | 5.18772 | 35991 ft | 386 kts | 270° |
| 2026-05-05 10:27 | 41.02938 | 5.11686 | 35985 ft | 385 kts | 270° |
| 2026-05-05 10:27 | 41.03295 | 5.04607 | 35979 ft | 385 kts | 270° |
| 2026-05-05 10:28 | 41.03644 | 4.97571 | 35977 ft | 385 kts | 270° |
| 2026-05-05 10:28 | 41.03989 | 4.90483 | 35950 ft | 387 kts | 270° |
| 2026-05-05 10:29 | 41.04163 | 4.86887 | 35693 ft | 391 kts | 270° |
| 2026-05-05 10:29 | 41.04337 | 4.83293 | 35443 ft | 390 kts | 270° |
| 2026-05-05 10:29 | 41.04514 | 4.79709 | 35192 ft | 389 kts | 270° |
| 2026-05-05 10:29 | 41.04713 | 4.76143 | 34942 ft | 388 kts | 271° |
| 2026-05-05 10:30 | 41.05014 | 4.72604 | 34634 ft | 385 kts | 273° |
| 2026-05-05 10:30 | 41.05385 | 4.69102 | 34091 ft | 382 kts | 274° |
| 2026-05-05 10:30 | 41.05785 | 4.65637 | 33555 ft | 379 kts | 274° |
| 2026-05-05 10:30 | 41.06194 | 4.62208 | 33026 ft | 375 kts | 274° |
| 2026-05-05 10:31 | 41.06594 | 4.58805 | 32494 ft | 372 kts | 274° |
| 2026-05-05 10:31 | 41.06978 | 4.55427 | 31964 ft | 369 kts | 274° |
| 2026-05-05 10:31 | 41.07348 | 4.52074 | 31451 ft | 366 kts | 273° |
| 2026-05-05 10:31 | 41.07706 | 4.48749 | 30934 ft | 363 kts | 273° |
| 2026-05-05 10:32 | 41.08057 | 4.45445 | 30430 ft | 360 kts | 273° |
| 2026-05-05 10:32 | 41.08405 | 4.42174 | 29930 ft | 357 kts | 273° |
| 2026-05-05 10:32 | 41.08752 | 4.38928 | 29439 ft | 354 kts | 273° |
| 2026-05-05 10:32 | 41.09097 | 4.35713 | 28959 ft | 351 kts | 273° |
| 2026-05-05 10:33 | 41.09438 | 4.32524 | 28485 ft | 347 kts | 273° |
| 2026-05-05 10:33 | 41.09769 | 4.29367 | 28029 ft | 344 kts | 273° |
| 2026-05-05 10:33 | 41.10095 | 4.26234 | 27575 ft | 341 kts | 273° |
| 2026-05-05 10:33 | 41.10418 | 4.23136 | 27139 ft | 338 kts | 273° |
| 2026-05-05 10:34 | 41.10736 | 4.20064 | 26709 ft | 335 kts | 272° |
| 2026-05-05 10:34 | 41.11054 | 4.17019 | 26289 ft | 331 kts | 272° |
| 2026-05-05 10:34 | 41.11370 | 4.14016 | 25874 ft | 327 kts | 272° |
| 2026-05-05 10:34 | 41.11683 | 4.11047 | 25441 ft | 324 kts | 272° |
| 2026-05-05 10:35 | 41.11993 | 4.08100 | 25007 ft | 321 kts | 272° |
| 2026-05-05 10:35 | 41.12299 | 4.05184 | 24569 ft | 318 kts | 272° |
| 2026-05-05 10:35 | 41.12600 | 4.02292 | 24125 ft | 315 kts | 272° |
| 2026-05-05 10:35 | 41.12894 | 3.99424 | 23681 ft | 313 kts | 272° |
| 2026-05-05 10:36 | 41.13184 | 3.96574 | 23227 ft | 311 kts | 272° |
| 2026-05-05 10:36 | 41.13471 | 3.93738 | 22781 ft | 309 kts | 272° |
| 2026-05-05 10:36 | 41.13759 | 3.90920 | 22331 ft | 308 kts | 272° |
| 2026-05-05 10:36 | 41.14047 | 3.88113 | 21886 ft | 307 kts | 272° |
| 2026-05-05 10:37 | 41.14328 | 3.85352 | 21456 ft | 306 kts | 272° |
| 2026-05-05 10:37 | 41.14609 | 3.82565 | 21020 ft | 304 kts | 272° |
| 2026-05-05 10:37 | 41.14888 | 3.79789 | 20596 ft | 303 kts | 272° |
| 2026-05-05 10:37 | 41.15166 | 3.77022 | 20158 ft | 302 kts | 272° |
| 2026-05-05 10:38 | 41.15443 | 3.74263 | 19762 ft | 304 kts | 272° |
| 2026-05-05 10:38 | 41.15724 | 3.71450 | 19430 ft | 310 kts | 273° |
| 2026-05-05 10:38 | 41.16010 | 3.68617 | 19075 ft | 310 kts | 273° |
| 2026-05-05 10:38 | 41.16296 | 3.65786 | 18728 ft | 309 kts | 273° |
| 2026-05-05 10:39 | 41.16579 | 3.62962 | 18379 ft | 309 kts | 273° |
| 2026-05-05 10:39 | 41.16945 | 3.60153 | 18007 ft | 311 kts | 283° |
| 2026-05-05 10:39 | 41.18023 | 3.57633 | 17669 ft | 321 kts | 306° |
| 2026-05-05 10:39 | 41.19830 | 3.55843 | 17316 ft | 332 kts | 329° |
| 2026-05-05 10:40 | 41.22042 | 3.54876 | 16961 ft | 336 kts | 339° |
| 2026-05-05 10:40 | 41.24293 | 3.54091 | 16621 ft | 334 kts | 339° |
| 2026-05-05 10:40 | 41.26534 | 3.53323 | 16273 ft | 331 kts | 339° |
| 2026-05-05 10:40 | 41.28749 | 3.52561 | 15974 ft | 327 kts | 339° |
| 2026-05-05 10:41 | 41.30945 | 3.51802 | 15676 ft | 324 kts | 339° |
| 2026-05-05 10:41 | 41.33111 | 3.51026 | 15368 ft | 319 kts | 335° |
| 2026-05-05 10:41 | 41.35061 | 3.49755 | 15070 ft | 309 kts | 323° |
| 2026-05-05 10:41 | 41.36899 | 3.48300 | 14762 ft | 306 kts | 322° |
| 2026-05-05 10:42 | 41.40505 | 3.45392 | 14164 ft | 300 kts | 322° |
| 2026-05-05 10:42 | 41.42285 | 3.43942 | 13864 ft | 300 kts | 322° |
| 2026-05-05 10:42 | 41.43890 | 3.42249 | 13561 ft | 289 kts | 305° |
| 2026-05-05 10:43 | 41.44927 | 3.40031 | 13259 ft | 277 kts | 285° |
| 2026-05-05 10:43 | 41.45288 | 3.37558 | 12955 ft | 269 kts | 265° |
| 2026-05-05 10:43 | 41.45130 | 3.35098 | 12628 ft | 266 kts | 260° |
| 2026-05-05 10:43 | 41.44928 | 3.32676 | 12304 ft | 266 kts | 260° |
| 2026-05-05 10:44 | 41.44723 | 3.30219 | 11971 ft | 266 kts | 260° |
| 2026-05-05 10:44 | 41.44518 | 3.27778 | 11670 ft | 265 kts | 260° |
| 2026-05-05 10:44 | 41.44313 | 3.25344 | 11398 ft | 265 kts | 260° |
| 2026-05-05 10:44 | 41.44109 | 3.22907 | 11121 ft | 264 kts | 260° |
| 2026-05-05 10:45 | 41.43906 | 3.20477 | 10869 ft | 263 kts | 261° |
| 2026-05-05 10:45 | 41.43701 | 3.18057 | 10608 ft | 263 kts | 261° |
| 2026-05-05 10:45 | 41.43491 | 3.15625 | 10330 ft | 263 kts | 261° |
| 2026-05-05 10:45 | 41.43281 | 3.13206 | 10053 ft | 262 kts | 261° |
| 2026-05-05 10:46 | 41.43072 | 3.10793 | 9776 ft | 262 kts | 261° |
| 2026-05-05 10:46 | 41.42867 | 3.08384 | 9497 ft | 262 kts | 261° |
| 2026-05-05 10:46 | 41.42663 | 3.05976 | 9224 ft | 261 kts | 261° |
| 2026-05-05 10:46 | 41.42459 | 3.03574 | 8948 ft | 261 kts | 261° |
| 2026-05-05 10:47 | 41.42255 | 3.01175 | 8672 ft | 260 kts | 261° |
| 2026-05-05 10:47 | 41.42050 | 2.98787 | 8396 ft | 259 kts | 261° |
| 2026-05-05 10:47 | 41.41844 | 2.96399 | 8120 ft | 259 kts | 261° |
| 2026-05-05 10:47 | 41.41635 | 2.94022 | 7840 ft | 258 kts | 261° |
| 2026-05-05 10:48 | 41.41429 | 2.91656 | 7576 ft | 257 kts | 261° |
| 2026-05-05 10:48 | 41.41225 | 2.89299 | 7306 ft | 256 kts | 262° |
| 2026-05-05 10:48 | 41.41022 | 2.86949 | 7030 ft | 255 kts | 262° |
| 2026-05-05 10:48 | 41.40822 | 2.84632 | 6758 ft | 256 kts | 262° |
| 2026-05-05 10:49 | 41.40619 | 2.82288 | 6503 ft | 254 kts | 262° |
| 2026-05-05 10:49 | 41.40416 | 2.79958 | 6246 ft | 253 kts | 262° |
| 2026-05-05 10:49 | 41.40210 | 2.77636 | 5968 ft | 252 kts | 262° |
| 2026-05-05 10:49 | 41.40004 | 2.75319 | 5680 ft | 251 kts | 262° |
| 2026-05-05 10:50 | 41.39797 | 2.73009 | 5443 ft | 251 kts | 262° |
| 2026-05-05 10:50 | 41.39590 | 2.70702 | 5190 ft | 251 kts | 262° |
| 2026-05-05 10:50 | 41.39383 | 2.68390 | 4915 ft | 251 kts | 262° |
| 2026-05-05 10:50 | 41.39177 | 2.66085 | 4636 ft | 251 kts | 262° |
| 2026-05-05 10:51 | 41.38971 | 2.63777 | 4375 ft | 251 kts | 262° |
| 2026-05-05 10:51 | 41.38768 | 2.61468 | 4108 ft | 251 kts | 262° |
| 2026-05-05 10:51 | 41.38560 | 2.59157 | 3835 ft | 252 kts | 262° |
| 2026-05-05 10:51 | 41.38351 | 2.56843 | 3756 ft | 252 kts | 262° |
| 2026-05-05 10:52 | 41.38139 | 2.54526 | 3712 ft | 252 kts | 262° |
| 2026-05-05 10:52 | 41.37929 | 2.52210 | 3654 ft | 252 kts | 262° |
| 2026-05-05 10:52 | 41.37719 | 2.49889 | 3574 ft | 253 kts | 262° |
| 2026-05-05 10:52 | 41.37511 | 2.47573 | 3504 ft | 252 kts | 262° |
| 2026-05-05 10:53 | 41.37304 | 2.45283 | 3431 ft | 243 kts | 262° |
| 2026-05-05 10:53 | 41.37111 | 2.43112 | 3361 ft | 228 kts | 262° |
| 2026-05-05 10:53 | 41.36951 | 2.41085 | 3284 ft | 220 kts | 268° |
| 2026-05-05 10:53 | 41.37075 | 2.39058 | 3210 ft | 220 kts | 278° |
| 2026-05-05 10:54 | 41.37156 | 2.37044 | 3123 ft | 214 kts | 259° |
| 2026-05-05 10:54 | 41.36878 | 2.35149 | 3030 ft | 203 kts | 258° |
| 2026-05-05 10:54 | 41.36617 | 2.33345 | 2999 ft | 195 kts | 258° |
| 2026-05-05 10:54 | 41.36365 | 2.31591 | 2940 ft | 192 kts | 258° |
| 2026-05-05 10:55 | 41.36116 | 2.29850 | 2842 ft | 191 kts | 258° |
| 2026-05-05 10:55 | 41.35867 | 2.28109 | 2732 ft | 191 kts | 258° |
| 2026-05-05 10:55 | 41.35618 | 2.26371 | 2547 ft | 191 kts | 258° |
| 2026-05-05 10:55 | 41.35348 | 2.24644 | 2374 ft | 190 kts | 252° |
| 2026-05-05 10:56 | 41.34867 | 2.23004 | 2068 ft | 189 kts | 245° |
| 2026-05-05 10:56 | 41.34345 | 2.21440 | 1804 ft | 179 kts | 245° |
| 2026-05-05 10:56 | 41.33843 | 2.19962 | 1579 ft | 172 kts | 245° |
| 2026-05-05 10:56 | 41.33352 | 2.18521 | 1356 ft | 169 kts | 245° |
| 2026-05-05 10:57 | 41.32883 | 2.17145 | 1144 ft | 157 kts | 246° |
| 2026-05-05 10:57 | 41.32446 | 2.15864 | 936 ft | 148 kts | 246° |
| 2026-05-05 10:57 | 41.32026 | 2.14631 | 749 ft | 145 kts | 246° |
| 2026-05-05 10:57 | 41.31611 | 2.13418 | 545 ft | 143 kts | 246° |
| 2026-05-05 10:58 | 41.31199 | 2.12221 | 350 ft | 142 kts | 246° |
| 2026-05-05 10:58 | 41.30792 | 2.11028 | 163 ft | 141 kts | 246° |
| 2026-05-05 10:58 | 41.30389 | 2.09849 | 25 ft | 137 kts | 246° |
| 2026-05-05 10:58 | 41.30054 | 2.08865 | 19 ft | 92 kts | 245° |
| 2026-05-05 10:59 | 41.29867 | 2.08371 | 24 ft | 33 kts | 231° |
| 2026-05-05 10:59 | 41.29759 | 2.08248 | 18 ft | 12 kts | 216° |
| 2026-05-05 10:59 | 41.29716 | 2.08207 | 19 ft | 5 kts | 215° |
| 2026-05-05 10:59 | 41.29684 | 2.08191 | 17 ft | 5 kts | 180° |
| 2026-05-05 11:00 | 41.29609 | 2.08234 | 16 ft | 21 kts | 156° |
| 2026-05-05 11:00 | 41.29458 | 2.08322 | 17 ft | 25 kts | 157° |
| 2026-05-05 11:00 | 41.29356 | 2.08285 | 19 ft | 21 kts | 241° |
| 2026-05-05 11:00 | 41.29298 | 2.08116 | 20 ft | 13 kts | 244° |
| 2026-05-05 11:01 | 41.29282 | 2.08081 | 19 ft | 3 kts | 223° |
| 2026-05-05 11:01 | 41.29259 | 2.08083 | 21 ft | 3 kts | 158° |
| 2026-05-05 11:01 | 41.29242 | 2.08094 | 19 ft | 4 kts | 155° |
| 2026-05-05 11:01 | 41.29216 | 2.08110 | 19 ft | 4 kts | 155° |
| 2026-05-05 11:02 | 41.29208 | 2.08115 | 19 ft | 0 kts | 155° |